Time;durP1;ratioP1;P1;durP2;ratioP2;P2;SDS_P1;SDS_P2;PMS_P1;PMS_P2;Temp;Humidity;BMP_temperature;BMP_pressure;BME280_temperature;BME280_humidity;BME280_pressure;Samples;Min_cycle;Max_cycle;Signal;HPM_P1;HPM_P2
2021/10/13 00:01:07;;;;;;;2.70;1.40;;;7.00;99.90;;;;;;5076463;28;20459;-70
2021/10/13 00:03:36;;;;;;;4.50;1.67;;;7.00;99.90;;;;;;5076372;28;20456;-70
2021/10/13 00:06:03;;;;;;;2.57;1.50;;;7.00;99.90;;;;;;5076270;28;20452;-70
2021/10/13 00:08:29;;;;;;;3.13;1.47;;;7.00;99.90;;;;;;5075940;28;20921;-70
2021/10/13 00:10:57;;;;;;;1.90;1.43;;;6.90;99.90;;;;;;5076862;28;20468;-70
2021/10/13 00:13:24;;;;;;;4.33;1.50;;;7.00;99.90;;;;;;5075642;28;20481;-70
2021/10/13 00:15:51;;;;;;;1.80;1.60;;;6.90;99.90;;;;;;5076260;28;20461;-70
2021/10/13 00:18:18;;;;;;;1.40;1.13;;;6.90;99.90;;;;;;5075492;28;20927;-70
2021/10/13 00:20:45;;;;;;;1.90;1.70;;;6.90;99.90;;;;;;5076206;28;20637;-70
2021/10/13 00:23:12;;;;;;;3.10;1.73;;;6.90;99.90;;;;;;5075531;28;20905;-70
2021/10/13 00:25:38;;;;;;;2.90;1.63;;;6.80;99.90;;;;;;5075648;28;20927;-70
2021/10/13 00:28:06;;;;;;;2.73;1.60;;;6.80;99.90;;;;;;5076044;28;20478;-70
2021/10/13 00:30:33;;;;;;;5.33;1.70;;;6.80;99.90;;;;;;5076085;28;20469;-70
2021/10/13 00:33:00;;;;;;;2.20;1.60;;;6.80;99.90;;;;;;5076059;28;20948;-70
2021/10/13 00:35:27;;;;;;;1.80;1.60;;;6.80;99.90;;;;;;5075656;28;20471;-70
2021/10/13 00:37:54;;;;;;;2.50;1.90;;;6.80;99.90;;;;;;5075391;28;20459;-71
2021/10/13 00:40:21;;;;;;;2.20;1.60;;;6.80;99.90;;;;;;5075496;28;20456;-70
2021/10/13 00:42:48;;;;;;;4.17;1.50;;;6.80;99.90;;;;;;5075081;28;20481;-70
2021/10/13 00:45:16;;;;;;;4.60;1.80;;;6.80;99.90;;;;;;5075560;28;20459;-70
2021/10/13 00:47:43;;;;;;;3.37;1.70;;;6.80;99.90;;;;;;5075344;28;20463;-70
2021/10/13 00:50:12;;;;;;;2.90;1.50;;;6.80;99.90;;;;;;5075547;28;20466;-70
2021/10/13 00:52:40;;;;;;;1.97;1.87;;;6.80;99.90;;;;;;5075436;28;20550;-70
2021/10/13 00:55:17;;;;;;;2.60;1.70;;;6.80;99.90;;;;;;5075471;28;20460;-70
2021/10/13 00:57:44;;;;;;;5.03;1.83;;;6.70;99.90;;;;;;5075071;28;20447;-70
2021/10/13 01:00:12;;;;;;;3.20;1.60;;;6.70;99.90;;;;;;5075616;28;20841;-70
2021/10/13 01:02:53;;;;;;;2.33;1.60;;;6.60;99.90;;;;;;5075230;28;20455;-70
2021/10/13 01:05:41;;;;;;;5.23;1.50;;;6.60;99.90;;;;;;5075106;28;20439;-70
2021/10/13 01:08:15;;;;;;;1.80;1.53;;;6.60;99.90;;;;;;5075185;28;20593;-70
2021/10/13 01:10:53;;;;;;;2.23;1.40;;;6.60;99.90;;;;;;5075245;28;20451;-70
2021/10/13 01:13:32;;;;;;;3.13;1.73;;;6.50;99.90;;;;;;5074623;28;20486;-70
2021/10/13 01:16:07;;;;;;;2.43;1.60;;;6.50;99.90;;;;;;5074574;28;20892;-70
2021/10/13 01:18:43;;;;;;;2.27;1.60;;;6.50;99.90;;;;;;5074921;28;20451;-70
2021/10/13 01:21:31;;;;;;;1.80;1.30;;;6.50;99.90;;;;;;5075319;28;20450;-70
2021/10/13 01:24:22;;;;;;;8.10;2.00;;;6.50;99.90;;;;;;5075352;28;20439;-70
2021/10/13 01:27:06;;;;;;;4.80;1.63;;;6.50;99.90;;;;;;5075036;28;20447;-70
2021/10/13 01:29:38;;;;;;;3.53;1.63;;;6.40;99.90;;;;;;5074418;28;20517;-70
2021/10/13 01:32:11;;;;;;;8.33;1.90;;;6.40;99.90;;;;;;5074885;28;20754;-70
2021/10/13 01:34:42;;;;;;;2.30;1.47;;;6.50;99.90;;;;;;5074870;28;20479;-70
2021/10/13 01:37:14;;;;;;;2.37;1.63;;;6.40;99.90;;;;;;5074992;28;20770;-70
2021/10/13 01:39:44;;;;;;;4.70;1.80;;;6.40;99.90;;;;;;5074942;28;20435;-70
2021/10/13 01:42:13;;;;;;;3.40;1.93;;;6.40;99.90;;;;;;5074513;28;20521;-70
2021/10/13 01:44:42;;;;;;;4.03;2.87;;;6.40;99.90;;;;;;5074988;28;20489;-70
2021/10/13 01:47:11;;;;;;;3.53;2.10;;;6.40;99.90;;;;;;5074772;28;20459;-70
2021/10/13 01:49:37;;;;;;;4.17;2.13;;;6.30;99.90;;;;;;5074525;28;20455;-70
2021/10/13 01:52:06;;;;;;;2.00;1.57;;;6.30;99.90;;;;;;5075090;28;20458;-70
2021/10/13 01:54:36;;;;;;;3.43;1.97;;;6.30;99.90;;;;;;5075051;28;20479;-71
2021/10/13 01:57:05;;;;;;;3.30;1.67;;;6.30;99.90;;;;;;5075249;28;20512;-70
2021/10/13 01:59:36;;;;;;;2.23;1.40;;;6.30;99.90;;;;;;5075214;28;20452;-70
2021/10/13 02:02:05;;;;;;;2.43;1.70;;;6.30;99.90;;;;;;5076391;28;20456;-70
2021/10/13 02:04:38;;;;;;;2.93;1.50;;;6.20;99.90;;;;;;5075956;28;20455;-70
2021/10/13 02:07:08;;;;;;;1.60;1.50;;;6.20;99.90;;;;;;5075367;28;20493;-70
2021/10/13 02:09:36;;;;;;;5.70;2.40;;;6.20;99.90;;;;;;5076030;28;20486;-70
2021/10/13 02:12:04;;;;;;;4.07;3.03;;;6.20;99.90;;;;;;5075374;28;20467;-70
2021/10/13 02:14:33;;;;;;;3.27;1.77;;;6.20;99.90;;;;;;5074984;28;20548;-70
2021/10/13 02:17:01;;;;;;;4.83;1.60;;;6.20;99.90;;;;;;5074978;28;20476;-70
2021/10/13 02:19:30;;;;;;;3.40;1.80;;;6.10;99.90;;;;;;5074776;28;20463;-70
2021/10/13 02:21:58;;;;;;;8.73;1.50;;;6.10;99.90;;;;;;5074678;28;20525;-70
2021/10/13 02:24:29;;;;;;;2.00;1.60;;;6.10;99.90;;;;;;5073994;28;20901;-70
2021/10/13 02:27:05;;;;;;;2.33;1.77;;;6.10;99.90;;;;;;5074551;28;20781;-70
2021/10/13 02:29:32;;;;;;;1.80;1.50;;;6.00;99.90;;;;;;5074253;28;20453;-70
2021/10/13 02:31:58;;;;;;;2.90;1.73;;;6.00;99.90;;;;;;5074011;28;20455;-70
2021/10/13 02:34:25;;;;;;;2.60;1.77;;;6.00;99.90;;;;;;5074346;28;20492;-70
2021/10/13 02:36:53;;;;;;;3.07;1.87;;;6.00;99.90;;;;;;5073844;28;20462;-70
2021/10/13 02:39:20;;;;;;;2.23;1.57;;;6.00;99.90;;;;;;5074101;28;20470;-70
2021/10/13 02:41:47;;;;;;;4.90;1.80;;;6.00;99.90;;;;;;5074541;28;20871;-70
2021/10/13 02:44:13;;;;;;;3.00;2.17;;;6.00;99.90;;;;;;5077749;28;20487;-70
2021/10/13 02:46:47;;;;;;;2.20;1.50;;;6.00;99.90;;;;;;5077786;28;20517;-70
2021/10/13 02:49:23;;;;;;;2.70;1.80;;;6.00;99.90;;;;;;5078098;28;20458;-72
2021/10/13 02:52:01;;;;;;;2.13;1.50;;;6.00;99.90;;;;;;5077955;28;20438;-70
2021/10/13 02:54:36;;;;;;;3.90;1.60;;;6.00;99.90;;;;;;5077614;28;20474;-70
2021/10/13 02:57:05;;;;;;;1.70;1.60;;;6.00;99.90;;;;;;5077966;28;20445;-70
2021/10/13 02:59:37;;;;;;;5.20;2.00;;;6.00;99.90;;;;;;5077309;28;20466;-69
2021/10/13 03:02:08;;;;;;;2.67;2.00;;;5.90;99.90;;;;;;5077800;28;20449;-70
2021/10/13 03:04:40;;;;;;;2.73;1.67;;;5.90;99.90;;;;;;5077499;28;20438;-70
2021/10/13 03:07:12;;;;;;;2.20;2.00;;;5.90;99.90;;;;;;5077654;28;20439;-70
2021/10/13 03:09:40;;;;;;;2.53;1.90;;;5.90;99.90;;;;;;5077785;28;20482;-70
2021/10/13 03:12:11;;;;;;;2.57;1.70;;;5.90;99.90;;;;;;5077367;28;20471;-70
2021/10/13 03:14:39;;;;;;;2.50;1.90;;;5.90;99.90;;;;;;5077552;28;20491;-70
2021/10/13 03:17:06;;;;;;;3.57;1.97;;;5.90;99.90;;;;;;5077262;28;20454;-70
2021/10/13 03:19:36;;;;;;;1.77;1.67;;;5.90;99.90;;;;;;5077463;28;20467;-70
2021/10/13 03:22:04;;;;;;;1.67;1.50;;;5.90;99.90;;;;;;5076800;28;20926;-70
2021/10/13 03:24:33;;;;;;;2.97;1.67;;;5.90;99.90;;;;;;5077235;28;20451;-70
2021/10/13 03:26:59;;;;;;;4.20;1.80;;;5.80;99.90;;;;;;5076941;28;20458;-69
2021/10/13 03:29:26;;;;;;;2.73;1.63;;;5.80;99.90;;;;;;5077392;28;20930;-70
2021/10/13 03:31:53;;;;;;;3.10;1.80;;;5.80;99.90;;;;;;5076977;28;20466;-70
2021/10/13 03:34:20;;;;;;;2.73;2.20;;;5.80;99.90;;;;;;5076993;28;20478;-70
2021/10/13 03:36:49;;;;;;;2.50;1.90;;;5.80;99.90;;;;;;5077348;28;20466;-69
2021/10/13 03:39:16;;;;;;;1.87;1.77;;;5.80;99.90;;;;;;5076557;28;20458;-70
2021/10/13 03:41:45;;;;;;;4.37;2.57;;;5.80;99.90;;;;;;5077009;28;20516;-70
2021/10/13 03:44:11;;;;;;;3.00;1.50;;;5.80;99.90;;;;;;5076428;28;20807;-70
2021/10/13 03:46:38;;;;;;;2.27;1.90;;;5.80;99.90;;;;;;5076946;28;20523;-70
2021/10/13 03:49:05;;;;;;;4.00;1.93;;;5.70;99.90;;;;;;5076898;28;20450;-70
2021/10/13 03:51:32;;;;;;;3.07;2.13;;;5.70;99.90;;;;;;5076715;28;20455;-70
2021/10/13 03:53:59;;;;;;;3.97;1.93;;;5.70;99.90;;;;;;5076168;28;20485;-70
2021/10/13 03:56:25;;;;;;;3.93;2.40;;;5.70;99.90;;;;;;5076557;28;20463;-70
2021/10/13 03:58:53;;;;;;;2.40;2.20;;;5.70;99.90;;;;;;5076246;28;20474;-70
2021/10/13 04:01:20;;;;;;;2.40;1.90;;;5.70;99.90;;;;;;5076483;28;20473;-70
2021/10/13 04:03:50;;;;;;;5.00;2.67;;;5.70;99.90;;;;;;5076398;28;20451;-70
2021/10/13 04:06:16;;;;;;;2.17;1.97;;;5.70;99.90;;;;;;5076577;28;20760;-70
2021/10/13 04:08:43;;;;;;;3.27;2.00;;;5.70;99.90;;;;;;5076198;28;20795;-70
2021/10/13 04:11:10;;;;;;;3.40;2.50;;;5.70;99.90;;;;;;5076432;28;20462;-70
2021/10/13 04:13:37;;;;;;;3.43;2.57;;;5.60;99.90;;;;;;5076260;28;20487;-70
2021/10/13 04:16:05;;;;;;;2.60;2.40;;;5.70;99.90;;;;;;5076429;28;20497;-70
2021/10/13 04:18:32;;;;;;;5.73;2.37;;;5.70;99.90;;;;;;5076251;28;20454;-70
2021/10/13 04:20:59;;;;;;;2.60;2.40;;;5.70;99.90;;;;;;5076177;28;20476;-70
2021/10/13 04:23:25;;;;;;;4.30;2.70;;;5.70;99.90;;;;;;5075726;28;20473;-70
2021/10/13 04:25:52;;;;;;;2.93;2.63;;;5.70;99.90;;;;;;5076079;28;20483;-70
2021/10/13 04:28:19;;;;;;;4.43;2.83;;;5.70;99.90;;;;;;5076063;28;20470;-70
2021/10/13 04:30:45;;;;;;;3.23;2.20;;;5.80;99.90;;;;;;5075854;28;20474;-70
2021/10/13 04:33:13;;;;;;;2.30;2.10;;;5.80;99.90;;;;;;5075833;28;20462;-70
2021/10/13 04:35:40;;;;;;;5.40;2.60;;;5.80;99.90;;;;;;5075626;28;20490;-70
2021/10/13 04:38:07;;;;;;;3.07;2.77;;;5.70;99.90;;;;;;5075349;28;20531;-69
2021/10/13 04:40:34;;;;;;;3.47;2.80;;;5.70;99.90;;;;;;5075640;28;20869;-70
2021/10/13 04:43:01;;;;;;;3.27;2.80;;;5.70;99.90;;;;;;5075422;28;20490;-70
2021/10/13 04:45:28;;;;;;;4.50;2.77;;;5.70;99.90;;;;;;5075694;28;20599;-70
2021/10/13 04:47:55;;;;;;;3.30;3.00;;;5.70;99.90;;;;;;5075553;28;20467;-70
2021/10/13 04:50:23;;;;;;;4.37;3.43;;;5.70;99.90;;;;;;5075477;28;20462;-70
2021/10/13 04:52:50;;;;;;;3.07;2.83;;;5.80;99.90;;;;;;5075518;28;20466;-70
2021/10/13 04:55:16;;;;;;;3.47;3.17;;;5.80;99.90;;;;;;5074892;28;20806;-70
2021/10/13 04:57:43;;;;;;;5.93;3.40;;;5.80;99.90;;;;;;5076185;28;20501;-70
2021/10/13 05:00:11;;;;;;;4.30;3.20;;;5.70;99.90;;;;;;5075380;28;20921;-70
2021/10/13 05:02:37;;;;;;;3.20;2.90;;;5.80;99.90;;;;;;5075278;28;20452;-70
2021/10/13 05:05:07;;;;;;;4.53;3.43;;;5.80;99.90;;;;;;5074441;28;20447;-70
2021/10/13 05:07:35;;;;;;;4.03;3.43;;;5.70;99.90;;;;;;5075356;28;20516;-70
2021/10/13 05:10:01;;;;;;;3.60;3.23;;;5.80;99.90;;;;;;5075148;28;20778;-70
2021/10/13 05:12:28;;;;;;;3.63;3.20;;;5.70;99.90;;;;;;5075168;28;20474;-70
2021/10/13 05:14:55;;;;;;;3.33;3.03;;;5.70;99.90;;;;;;5074863;28;20802;-70
2021/10/13 05:17:21;;;;;;;3.80;3.00;;;5.80;99.90;;;;;;5075133;28;20833;-70
2021/10/13 05:19:48;;;;;;;4.80;3.13;;;5.70;99.90;;;;;;5075610;28;20463;-70
2021/10/13 05:22:15;;;;;;;5.50;3.10;;;5.70;99.90;;;;;;5074908;28;20462;-70
2021/10/13 05:24:43;;;;;;;5.33;3.53;;;5.70;99.90;;;;;;5074976;28;20512;-70
2021/10/13 05:27:10;;;;;;;4.70;2.90;;;5.70;99.90;;;;;;5075009;28;20595;-70
2021/10/13 05:29:36;;;;;;;9.90;4.30;;;5.70;99.90;;;;;;5074901;28;20466;-70
2021/10/13 05:32:03;;;;;;;6.03;4.40;;;5.70;99.90;;;;;;5074895;28;20926;-70
2021/10/13 05:34:30;;;;;;;4.37;3.97;;;5.70;99.90;;;;;;5074488;28;20962;-70
2021/10/13 05:36:57;;;;;;;4.73;4.33;;;5.70;99.90;;;;;;5075006;28;20458;-70
2021/10/13 05:39:23;;;;;;;6.63;4.37;;;5.70;99.90;;;;;;5074505;28;20460;-70
2021/10/13 05:41:51;;;;;;;6.87;4.90;;;5.70;99.90;;;;;;5074953;28;20480;-70
2021/10/13 05:44:18;;;;;;;6.90;5.00;;;5.70;99.90;;;;;;5074247;28;20547;-70
2021/10/13 05:46:45;;;;;;;4.97;4.47;;;5.70;99.90;;;;;;5074252;28;20479;-70
2021/10/13 05:49:11;;;;;;;5.50;4.90;;;5.70;99.90;;;;;;5074630;28;20950;-69
2021/10/13 05:51:38;;;;;;;6.87;4.90;;;5.80;99.90;;;;;;5074925;28;20456;-69
2021/10/13 05:54:05;;;;;;;5.67;5.03;;;5.80;99.90;;;;;;5074153;28;20530;-69
2021/10/13 05:56:32;;;;;;;7.80;4.97;;;5.80;99.90;;;;;;5074217;28;20463;-71
2021/10/13 05:59:00;;;;;;;6.73;4.90;;;5.80;99.90;;;;;;5074657;28;20458;-70
2021/10/13 06:01:26;;;;;;;7.10;4.60;;;5.80;99.90;;;;;;5074178;28;20459;-70
2021/10/13 06:03:53;;;;;;;9.87;5.30;;;5.90;99.90;;;;;;5074498;28;20474;-70
2021/10/13 06:06:20;;;;;;;7.27;5.03;;;5.90;99.90;;;;;;5074676;28;20459;-70
2021/10/13 06:08:47;;;;;;;11.23;5.73;;;5.90;99.90;;;;;;5074541;28;20464;-70
2021/10/13 06:11:13;;;;;;;9.10;5.33;;;6.00;99.90;;;;;;5074121;28;20460;-70
2021/10/13 06:13:41;;;;;;;6.50;4.70;;;6.10;99.90;;;;;;5074521;28;20465;-70
2021/10/13 06:16:10;;;;;;;5.63;4.70;;;6.10;99.90;;;;;;5074952;28;20475;-70
2021/10/13 06:18:37;;;;;;;5.13;4.63;;;6.20;99.90;;;;;;5078357;28;20456;-70
2021/10/13 06:21:04;;;;;;;7.83;4.70;;;6.20;99.90;;;;;;5078292;28;20489;-70
2021/10/13 06:23:31;;;;;;;5.80;4.93;;;6.20;99.90;;;;;;5078594;28;20464;-70
2021/10/13 06:25:58;;;;;;;6.87;5.40;;;6.20;99.90;;;;;;5078316;28;20459;-70
2021/10/13 06:28:25;;;;;;;6.63;4.90;;;6.20;99.90;;;;;;5078426;28;20456;-70
2021/10/13 06:30:51;;;;;;;5.87;5.27;;;6.30;99.90;;;;;;5077767;28;20458;-70
2021/10/13 06:33:20;;;;;;;4.40;3.93;;;6.30;99.90;;;;;;5077915;28;20459;-70
2021/10/13 06:35:46;;;;;;;8.93;4.70;;;6.40;99.90;;;;;;5078110;28;20493;-70
2021/10/13 06:38:13;;;;;;;6.27;4.90;;;6.40;99.90;;;;;;5078123;28;20454;-70
2021/10/13 06:40:39;;;;;;;6.43;4.30;;;6.40;99.90;;;;;;5078314;28;20840;-70
2021/10/13 06:43:06;;;;;;;8.27;4.70;;;6.40;99.90;;;;;;5077354;28;20865;-70
2021/10/13 06:45:35;;;;;;;8.50;4.43;;;6.40;99.90;;;;;;5077486;28;20462;-69
2021/10/13 06:48:03;;;;;;;5.07;4.50;;;6.40;99.90;;;;;;5077628;28;20455;-70
2021/10/13 06:50:32;;;;;;;8.60;5.50;;;6.40;99.90;;;;;;5077650;28;20467;-70
2021/10/13 06:52:58;;;;;;;7.77;5.20;;;6.50;99.90;;;;;;5077389;28;20475;-69
2021/10/13 06:55:25;;;;;;;6.63;5.83;;;6.50;99.90;;;;;;5077431;28;20552;-69
2021/10/13 06:57:52;;;;;;;9.73;5.10;;;6.50;99.90;;;;;;5077339;28;20522;-70
2021/10/13 07:00:18;;;;;;;6.17;4.80;;;6.60;99.90;;;;;;5077556;28;20454;-70
2021/10/13 07:02:45;;;;;;;8.03;5.60;;;6.60;99.90;;;;;;5077788;28;20462;-70
2021/10/13 07:05:12;;;;;;;6.60;4.90;;;6.60;99.90;;;;;;5077084;28;20461;-69
2021/10/13 07:07:44;;;;;;;5.97;4.70;;;6.60;99.90;;;;;;5077578;28;20789;-69
2021/10/13 07:10:11;;;;;;;10.90;5.50;;;6.60;99.90;;;;;;5077934;28;20443;-70
2021/10/13 07:12:38;;;;;;;8.67;5.57;;;6.60;99.90;;;;;;5077315;28;20463;-70
2021/10/13 07:15:06;;;;;;;8.33;5.37;;;6.60;99.90;;;;;;5076672;28;20574;-70
2021/10/13 07:17:33;;;;;;;10.40;6.20;;;6.70;99.90;;;;;;5077294;28;20520;-69
2021/10/13 07:20:01;;;;;;;8.07;6.00;;;6.70;99.90;;;;;;5077324;28;20537;-71
2021/10/13 07:22:28;;;;;;;6.83;5.83;;;6.70;99.90;;;;;;5077123;28;20872;-70
2021/10/13 07:24:57;;;;;;;6.87;6.00;;;6.70;99.90;;;;;;5077490;28;20468;-71
2021/10/13 07:27:24;;;;;;;7.87;6.00;;;6.70;99.90;;;;;;5076277;28;20471;-70
2021/10/13 07:29:56;;;;;;;8.10;5.80;;;6.70;99.90;;;;;;5076906;28;20554;-70
2021/10/13 07:32:23;;;;;;;8.23;5.87;;;6.80;99.90;;;;;;5077294;28;20752;-70
2021/10/13 07:34:50;;;;;;;8.40;5.83;;;6.90;99.90;;;;;;5076706;28;20577;-70
2021/10/13 07:37:17;;;;;;;7.93;5.80;;;7.00;99.90;;;;;;5077206;28;20827;-70
2021/10/13 07:39:44;;;;;;;6.80;5.53;;;7.00;99.90;;;;;;5076779;28;20906;-70
2021/10/13 07:42:12;;;;;;;5.43;4.33;;;7.10;99.90;;;;;;5076581;28;20526;-69
2021/10/13 07:44:39;;;;;;;8.03;6.60;;;7.10;99.90;;;;;;5076729;28;20451;-70
2021/10/13 07:47:06;;;;;;;7.03;5.63;;;7.10;99.90;;;;;;5076472;28;20947;-70
2021/10/13 07:49:33;;;;;;;8.00;6.83;;;7.20;99.90;;;;;;5076854;28;20456;-70
2021/10/13 07:51:59;;;;;;;9.80;5.90;;;7.30;99.90;;;;;;5076134;28;20551;-70
2021/10/13 07:54:26;;;;;;;8.27;5.73;;;7.30;99.90;;;;;;5076770;28;20471;-70
2021/10/13 07:56:53;;;;;;;8.07;5.30;;;7.50;99.90;;;;;;5076318;28;20460;-70
2021/10/13 07:59:21;;;;;;;8.97;5.83;;;7.50;99.90;;;;;;5076219;28;20532;-70
2021/10/13 08:01:48;;;;;;;5.80;4.80;;;7.50;99.90;;;;;;5076177;28;20450;-70
2021/10/13 08:04:14;;;;;;;6.67;5.77;;;7.50;99.90;;;;;;5076721;28;20851;-70
2021/10/13 08:06:41;;;;;;;7.80;5.50;;;7.50;99.90;;;;;;5076492;28;20455;-70
2021/10/13 08:09:11;;;;;;;7.60;5.67;;;7.50;99.90;;;;;;5075938;28;20469;-70
2021/10/13 08:11:38;;;;;;;8.30;5.57;;;7.50;99.90;;;;;;5076130;28;20456;-70
2021/10/13 08:14:05;;;;;;;6.83;5.47;;;7.50;99.90;;;;;;5075885;28;20945;-70
2021/10/13 08:16:33;;;;;;;9.47;6.30;;;7.60;99.90;;;;;;5075953;28;20556;-70
2021/10/13 08:19:00;;;;;;;13.80;6.23;;;7.70;99.90;;;;;;5075918;28;20920;-70
2021/10/13 08:21:26;;;;;;;6.33;4.93;;;7.70;99.90;;;;;;5075895;28;20887;-70
2021/10/13 08:23:56;;;;;;;6.63;5.60;;;7.70;99.90;;;;;;5076035;28;20948;-70
2021/10/13 08:26:24;;;;;;;5.67;5.10;;;7.70;99.90;;;;;;5076037;28;20468;-69
2021/10/13 08:28:51;;;;;;;6.90;5.37;;;7.80;99.90;;;;;;5075938;28;20837;-70
2021/10/13 08:31:17;;;;;;;8.63;5.00;;;7.90;99.90;;;;;;5075893;28;20462;-70
2021/10/13 08:33:46;;;;;;;6.20;4.90;;;8.00;99.90;;;;;;5076486;28;20530;-70
2021/10/13 08:36:13;;;;;;;7.10;4.90;;;8.10;99.90;;;;;;5075543;28;20476;-70
2021/10/13 08:38:40;;;;;;;7.47;5.10;;;8.20;99.90;;;;;;5075879;28;20461;-70
2021/10/13 08:41:07;;;;;;;6.43;4.77;;;8.20;99.90;;;;;;5075765;28;20463;-70
2021/10/13 08:43:33;;;;;;;13.33;5.40;;;8.30;99.90;;;;;;5075082;28;20494;-70
2021/10/13 08:46:00;;;;;;;5.60;5.03;;;8.40;99.90;;;;;;5075126;28;20552;-71
2021/10/13 08:48:27;;;;;;;7.83;4.90;;;8.60;99.90;;;;;;5075333;28;20469;-70
2021/10/13 08:50:55;;;;;;;9.73;4.73;;;8.70;99.90;;;;;;5075561;28;20457;-70
2021/10/13 08:53:24;;;;;;;7.23;5.10;;;8.90;99.90;;;;;;5075033;28;20461;-70
2021/10/13 08:55:53;;;;;;;7.00;4.57;;;9.00;99.90;;;;;;5075034;28;20484;-69
2021/10/13 08:58:21;;;;;;;5.50;4.27;;;9.20;99.90;;;;;;5075345;28;20459;-70
2021/10/13 09:00:50;;;;;;;5.93;3.80;;;9.30;99.90;;;;;;5075887;28;20471;-69
2021/10/13 09:03:27;;;;;;;5.97;4.57;;;9.40;99.90;;;;;;5075493;28;20462;-69
2021/10/13 09:05:56;;;;;;;6.20;3.80;;;9.40;99.90;;;;;;5075978;28;20457;-69
2021/10/13 09:08:23;;;;;;;5.70;4.63;;;9.50;99.90;;;;;;5075661;28;20493;-70
2021/10/13 09:10:54;;;;;;;6.10;3.80;;;9.60;99.90;;;;;;5075835;28;20459;-70
2021/10/13 09:13:21;;;;;;;4.50;4.07;;;9.60;99.90;;;;;;5075375;28;20907;-70
2021/10/13 09:15:49;;;;;;;5.10;3.50;;;9.70;99.90;;;;;;5074921;28;20974;-70
2021/10/13 09:18:20;;;;;;;6.63;3.80;;;9.70;99.90;;;;;;5075365;28;20558;-70
2021/10/13 09:20:50;;;;;;;5.07;3.70;;;9.70;99.90;;;;;;5074793;28;20495;-70
2021/10/13 09:23:20;;;;;;;4.10;2.90;;;9.80;99.90;;;;;;5075301;28;20534;-70
2021/10/13 09:26:05;;;;;;;6.07;3.47;;;9.80;99.90;;;;;;5074802;28;20467;-70
2021/10/13 09:28:32;;;;;;;4.07;3.40;;;9.90;99.90;;;;;;5075018;28;20887;-70
2021/10/13 09:31:11;;;;;;;4.83;3.57;;;9.90;99.90;;;;;;5075088;28;20455;-70
2021/10/13 09:33:38;;;;;;;6.07;3.33;;;9.90;99.90;;;;;;5074827;28;20446;-70
2021/10/13 09:36:14;;;;;;;7.80;3.90;;;10.00;99.90;;;;;;5074804;28;20561;-70
2021/10/13 09:38:44;;;;;;;3.30;3.03;;;10.10;99.90;;;;;;5074713;28;20545;-69
2021/10/13 09:41:11;;;;;;;4.87;3.23;;;10.20;99.90;;;;;;5074632;28;20476;-70
2021/10/13 09:43:39;;;;;;;7.00;3.30;;;10.30;99.90;;;;;;5074306;28;20487;-70
2021/10/13 09:46:09;;;;;;;3.97;3.17;;;10.40;99.90;;;;;;5074928;28;20805;-71
2021/10/13 09:48:38;;;;;;;3.57;2.90;;;10.40;99.90;;;;;;5074863;28;20525;-70
2021/10/13 09:51:17;;;;;;;5.03;2.90;;;10.50;99.90;;;;;;5073978;28;20459;-69
2021/10/13 09:53:45;;;;;;;3.57;3.17;;;10.50;99.90;;;;;;5074447;28;20927;-70
2021/10/13 09:56:33;;;;;;;5.63;3.10;;;10.60;99.90;;;;;;5074224;28;20480;-70
2021/10/13 09:59:14;;;;;;;4.77;3.27;;;10.70;99.90;;;;;;5074696;28;20508;-71
2021/10/13 10:01:44;;;;;;;4.30;3.07;;;10.80;99.90;;;;;;5074385;28;20440;-70
2021/10/13 10:04:14;;;;;;;3.37;3.03;;;10.90;99.90;;;;;;5074133;28;20479;-71
2021/10/13 10:06:41;;;;;;;4.23;3.83;;;11.00;99.90;;;;;;5074793;28;20745;-70
2021/10/13 10:09:09;;;;;;;4.20;3.07;;;11.00;99.90;;;;;;5074057;28;20462;-70
2021/10/13 10:11:39;;;;;;;4.80;2.93;;;11.10;99.90;;;;;;5074443;28;20468;-70
2021/10/13 10:14:26;;;;;;;3.93;3.37;;;11.10;99.90;;;;;;5074201;28;20494;-70
2021/10/13 10:16:53;;;;;;;5.10;3.20;;;11.10;99.90;;;;;;5073787;28;20479;-70
2021/10/13 10:19:22;;;;;;;4.70;3.93;;;11.30;99.90;;;;;;5074345;28;20458;-70
2021/10/13 10:21:51;;;;;;;4.40;3.30;;;11.30;99.90;;;;;;5074164;28;20469;-70
2021/10/13 10:24:28;;;;;;;4.23;3.70;;;11.40;99.90;;;;;;5074225;28;20464;-71
2021/10/13 10:27:22;;;;;;;3.43;3.00;;;11.50;99.90;;;;;;5074385;28;20441;-71
2021/10/13 10:29:50;;;;;;;3.87;2.97;;;11.50;99.90;;;;;;5074504;28;20478;-71
2021/10/13 10:32:18;;;;;;;4.90;3.60;;;11.50;99.90;;;;;;5074385;28;20462;-71
2021/10/13 10:35:11;;;;;;;4.00;3.17;;;11.50;99.90;;;;;;5074198;28;20766;-71
2021/10/13 10:37:39;;;;;;;4.07;3.40;;;11.50;99.90;;;;;;5074734;28;20487;-70
2021/10/13 10:40:10;;;;;;;6.60;3.70;;;11.40;99.90;;;;;;5074044;28;20793;-70
2021/10/13 10:43:03;;;;;;;3.27;2.83;;;11.40;99.90;;;;;;5073798;28;20482;-71
2021/10/13 10:45:40;;;;;;;5.10;3.50;;;11.50;99.90;;;;;;5073796;28;20451;-70
2021/10/13 10:48:10;;;;;;;4.80;3.10;;;11.50;99.90;;;;;;5074294;28;20540;-71
2021/10/13 10:50:40;;;;;;;5.33;4.00;;;11.50;99.90;;;;;;5074139;28;20790;-70
2021/10/13 10:53:27;;;;;;;3.80;3.40;;;11.50;99.90;;;;;;5074090;28;20803;-70
2021/10/13 10:55:57;;;;;;;3.60;2.70;;;11.50;99.90;;;;;;5073784;28;20468;-71
2021/10/13 10:58:27;;;;;;;3.77;3.30;;;11.50;99.90;;;;;;5073786;28;20442;-71
2021/10/13 11:01:11;;;;;;;4.33;3.33;;;11.50;99.90;;;;;;5073808;28;20434;-70
2021/10/13 11:03:39;;;;;;;4.67;3.30;;;11.50;99.90;;;;;;5075815;28;20910;-71
2021/10/13 11:06:17;;;;;;;4.23;3.00;;;11.60;99.90;;;;;;5077411;28;20466;-71
2021/10/13 11:08:55;;;;;;;4.03;2.77;;;11.60;99.90;;;;;;5077200;28;20446;-70
2021/10/13 11:11:27;;;;;;;3.50;2.93;;;11.60;99.90;;;;;;5077835;28;20465;-71
2021/10/13 11:14:01;;;;;;;7.30;3.00;;;11.80;99.90;;;;;;5077403;28;20541;-70
2021/10/13 11:16:28;;;;;;;3.47;2.43;;;12.00;99.90;;;;;;5077127;28;20469;-71
2021/10/13 11:19:05;;;;;;;3.57;3.10;;;12.20;99.90;;;;;;5077191;28;20458;-71
2021/10/13 11:21:31;;;;;;;4.10;3.20;;;12.30;99.90;;;;;;5077546;28;20439;-70
2021/10/13 11:23:59;;;;;;;3.53;2.37;;;12.20;99.90;;;;;;5077471;28;20454;-71
2021/10/13 11:26:27;;;;;;;4.73;2.43;;;12.30;99.90;;;;;;5077579;28;20760;-70
2021/10/13 11:28:54;;;;;;;7.10;2.50;;;12.30;99.90;;;;;;5077194;28;20918;-71
2021/10/13 11:31:21;;;;;;;3.40;2.53;;;12.50;99.90;;;;;;5077463;28;20471;-70
2021/10/13 11:33:48;;;;;;;3.10;2.50;;;12.60;99.90;;;;;;5076913;28;20460;-70
2021/10/13 11:36:14;;;;;;;4.47;2.47;;;12.80;99.90;;;;;;5077665;28;20492;-71
2021/10/13 11:38:42;;;;;;;2.80;2.20;;;13.00;99.90;;;;;;5079087;28;20471;-71
2021/10/13 11:41:12;;;;;;;4.00;2.70;;;13.20;99.90;;;;;;5079074;28;20529;-70
2021/10/13 11:43:41;;;;;;;2.80;2.20;;;13.30;99.90;;;;;;5088075;28;20530;-70
2021/10/13 11:46:10;;;;;;;2.57;2.33;;;13.30;99.90;;;;;;5089783;28;20456;-70
2021/10/13 11:48:37;;;;;;;2.63;2.00;;;13.50;99.90;;;;;;5089129;28;20464;-70
2021/10/13 11:51:10;;;;;;;3.33;2.20;;;13.80;99.90;;;;;;5089079;28;20464;-70
2021/10/13 11:53:40;;;;;;;2.63;1.63;;;14.50;99.90;;;;;;5087875;28;20438;-70
2021/10/13 11:56:11;;;;;;;3.80;2.00;;;15.30;99.90;;;;;;5087673;28;20539;-70
2021/10/13 11:58:41;;;;;;;3.83;2.23;;;15.60;99.90;;;;;;5085712;28;20474;-70
2021/10/13 12:01:13;;;;;;;2.73;1.90;;;15.80;99.90;;;;;;5078525;28;20461;-70
2021/10/13 12:03:40;;;;;;;4.97;2.20;;;16.30;99.90;;;;;;5076803;28;20759;-70
2021/10/13 12:06:08;;;;;;;2.70;2.17;;;16.20;99.90;;;;;;5076493;28;20543;-70
2021/10/13 12:08:36;;;;;;;4.60;2.20;;;15.80;99.90;;;;;;5076707;28;20465;-70
2021/10/13 12:11:07;;;;;;;3.00;2.13;;;15.80;99.90;;;;;;5076412;28;20454;-70
2021/10/13 12:13:36;;;;;;;2.70;1.50;;;16.60;99.90;;;;;;5075941;28;20886;-70
2021/10/13 12:16:06;;;;;;;2.60;1.63;;;17.50;99.90;;;;;;5076317;28;20458;-69
2021/10/13 12:18:35;;;;;;;2.53;1.80;;;18.20;99.90;;;;;;5076397;28;20443;-70
2021/10/13 12:21:10;;;;;;;3.60;2.20;;;17.60;99.90;;;;;;5076170;28;20478;-70
2021/10/13 12:23:43;;;;;;;2.53;2.07;;;17.20;99.90;;;;;;5076113;28;20545;-70
2021/10/13 12:26:15;;;;;;;4.03;2.30;;;17.50;99.90;;;;;;5076304;28;20886;-70
2021/10/13 12:28:43;;;;;;;3.30;1.87;;;17.50;99.90;;;;;;5079404;28;20469;-72
2021/10/13 12:31:13;;;;;;;2.83;1.90;;;17.40;99.90;;;;;;5077196;28;20934;-70
2021/10/13 12:33:46;;;;;;;2.90;2.10;;;16.80;99.90;;;;;;5075979;28;20534;-70
2021/10/13 12:36:18;;;;;;;3.47;2.23;;;16.00;99.90;;;;;;5075593;28;20455;-70
2021/10/13 12:38:49;;;;;;;2.40;1.93;;;15.60;99.90;;;;;;5077016;28;20471;-68
2021/10/13 12:41:17;;;;;;;3.97;2.10;;;15.10;99.90;;;;;;5084501;28;20442;-69
2021/10/13 12:43:47;;;;;;;3.10;2.07;;;15.30;99.90;;;;;;5076275;28;20518;-69
2021/10/13 12:46:25;;;;;;;2.47;2.10;;;15.00;99.90;;;;;;5076311;28;20509;-69
2021/10/13 12:48:53;;;;;;;3.13;2.40;;;15.00;99.90;;;;;;5076331;28;20449;-69
2021/10/13 12:51:20;;;;;;;2.50;2.00;;;15.20;99.90;;;;;;5075985;28;20793;-68
2021/10/13 12:53:47;;;;;;;4.43;2.07;;;16.00;99.90;;;;;;5075762;28;20511;-70
2021/10/13 12:56:16;;;;;;;2.80;2.53;;;16.70;99.90;;;;;;5076010;28;20846;-70
2021/10/13 12:58:46;;;;;;;2.23;2.00;;;16.40;99.90;;;;;;5075918;28;20458;-68
2021/10/13 13:01:13;;;;;;;2.80;2.20;;;16.40;99.90;;;;;;5075586;28;20455;-69
2021/10/13 13:03:41;;;;;;;3.63;2.43;;;16.90;99.90;;;;;;5076086;28;20838;-69
2021/10/13 13:06:08;;;;;;;5.00;2.17;;;17.10;99.90;;;;;;5075417;28;20467;-69